sensor_id;sensor_type;location;lat;lon;timestamp;pressure;altitude;pressure_sealevel;temperature;humidity
25664;BME280;13522;50.018;20.014;2023-09-12T00:01:47;98563.47;;;19.05;100.00
25664;BME280;13522;50.018;20.014;2023-09-12T00:04:59;98569.02;;;18.91;100.00
25664;BME280;13522;50.018;20.014;2023-09-12T00:08:11;98563.86;;;18.96;100.00
25664;BME280;13522;50.018;20.014;2023-09-12T00:11:24;98566.16;;;18.99;100.00
25664;BME280;13522;50.018;20.014;2023-09-12T00:14:36;98564.73;;;19.03;100.00
25664;BME280;13522;50.018;20.014;2023-09-12T00:17:49;98560.36;;;19.02;100.00
25664;BME280;13522;50.018;20.014;2023-09-12T00:21:01;98562.59;;;18.92;100.00
25664;BME280;13522;50.018;20.014;2023-09-12T00:24:14;98565.11;;;18.93;100.00
25664;BME280;13522;50.018;20.014;2023-09-12T00:27:27;98566.13;;;18.92;100.00
25664;BME280;13522;50.018;20.014;2023-09-12T00:30:39;98575.24;;;18.91;100.00
25664;BME280;13522;50.018;20.014;2023-09-12T00:33:52;98572.31;;;18.86;100.00
25664;BME280;13522;50.018;20.014;2023-09-12T00:37:05;98570.75;;;18.64;100.00
25664;BME280;13522;50.018;20.014;2023-09-12T00:40:18;98565.64;;;18.42;100.00
25664;BME280;13522;50.018;20.014;2023-09-12T00:43:30;98572.95;;;18.48;100.00
25664;BME280;13522;50.018;20.014;2023-09-12T00:46:43;98572.95;;;18.48;100.00
25664;BME280;13522;50.018;20.014;2023-09-12T00:49:57;98569.22;;;18.49;100.00
25664;BME280;13522;50.018;20.014;2023-09-12T00:53:11;98573.70;;;18.42;100.00
25664;BME280;13522;50.018;20.014;2023-09-12T00:56:23;98568.08;;;18.37;100.00
25664;BME280;13522;50.018;20.014;2023-09-12T00:59:36;98569.34;;;18.41;100.00
25664;BME280;13522;50.018;20.014;2023-09-12T01:02:49;98569.34;;;18.41;100.00
25664;BME280;13522;50.018;20.014;2023-09-12T01:06:04;98565.89;;;18.47;100.00
25664;BME280;13522;50.018;20.014;2023-09-12T01:09:18;98558.25;;;18.50;100.00
25664;BME280;13522;50.018;20.014;2023-09-12T01:12:31;98550.39;;;18.49;100.00
25664;BME280;13522;50.018;20.014;2023-09-12T01:15:44;98544.63;;;18.52;100.00
25664;BME280;13522;50.018;20.014;2023-09-12T01:18:56;98552.49;;;18.53;100.00
25664;BME280;13522;50.018;20.014;2023-09-12T01:26:23;98551.19;;;18.43;100.00
25664;BME280;13522;50.018;20.014;2023-09-12T01:29:45;98548.23;;;18.38;100.00
25664;BME280;13522;50.018;20.014;2023-09-12T01:32:59;98549.87;;;18.32;100.00
25664;BME280;13522;50.018;20.014;2023-09-12T01:36:13;98553.92;;;18.22;100.00
25664;BME280;13522;50.018;20.014;2023-09-12T01:39:26;98550.25;;;18.29;100.00
25664;BME280;13522;50.018;20.014;2023-09-12T01:42:40;98557.73;;;18.34;100.00
25664;BME280;13522;50.018;20.014;2023-09-12T01:45:58;98563.11;;;18.34;100.00
25664;BME280;13522;50.018;20.014;2023-09-12T01:49:12;98550.83;;;18.25;100.00
25664;BME280;13522;50.018;20.014;2023-09-12T01:52:27;98557.98;;;18.11;100.00
25664;BME280;13522;50.018;20.014;2023-09-12T01:55:40;98561.59;;;17.97;100.00
25664;BME280;13522;50.018;20.014;2023-09-12T01:58:54;98563.30;;;18.04;100.00
25664;BME280;13522;50.018;20.014;2023-09-12T02:02:07;98555.44;;;18.03;100.00
25664;BME280;13522;50.018;20.014;2023-09-12T02:05:20;98562.08;;;18.07;100.00
25664;BME280;13522;50.018;20.014;2023-09-12T02:08:34;98559.80;;;18.04;100.00
25664;BME280;13522;50.018;20.014;2023-09-12T02:11:48;98563.27;;;17.98;100.00
25664;BME280;13522;50.018;20.014;2023-09-12T02:15:01;98562.77;;;17.88;100.00
25664;BME280;13522;50.018;20.014;2023-09-12T02:18:13;98560.77;;;17.69;100.00
25664;BME280;13522;50.018;20.014;2023-09-12T02:21:26;98571.73;;;17.74;100.00
25664;BME280;13522;50.018;20.014;2023-09-12T02:24:38;98565.16;;;17.76;100.00
25664;BME280;13522;50.018;20.014;2023-09-12T02:27:50;98559.66;;;17.63;100.00
25664;BME280;13522;50.018;20.014;2023-09-12T02:31:02;98565.16;;;17.76;100.00
25664;BME280;13522;50.018;20.014;2023-09-12T02:34:15;98560.22;;;17.80;100.00
25664;BME280;13522;50.018;20.014;2023-09-12T02:37:28;98564.76;;;17.79;100.00
25664;BME280;13522;50.018;20.014;2023-09-12T02:40:40;98562.34;;;17.84;100.00
25664;BME280;13522;50.018;20.014;2023-09-12T02:43:52;98562.51;;;17.83;100.00
25664;BME280;13522;50.018;20.014;2023-09-12T02:47:06;98563.11;;;17.78;100.00
25664;BME280;13522;50.018;20.014;2023-09-12T02:50:18;98561.50;;;17.84;100.00
25664;BME280;13522;50.018;20.014;2023-09-12T02:53:31;98563.98;;;17.85;100.00
25664;BME280;13522;50.018;20.014;2023-09-12T02:56:43;98560.09;;;17.88;100.00
25664;BME280;13522;50.018;20.014;2023-09-12T02:59:55;98566.09;;;17.90;100.00
25664;BME280;13522;50.018;20.014;2023-09-12T03:03:14;98558.23;;;17.88;100.00
25664;BME280;13522;50.018;20.014;2023-09-12T03:06:27;98565.02;;;17.84;100.00
25664;BME280;13522;50.018;20.014;2023-09-12T03:09:41;98564.13;;;17.77;100.00
25664;BME280;13522;50.018;20.014;2023-09-12T03:12:53;98564.89;;;17.71;100.00
25664;BME280;13522;50.018;20.014;2023-09-12T03:16:09;98554.78;;;17.73;100.00
25664;BME280;13522;50.018;20.014;2023-09-12T03:19:21;98564.89;;;17.71;100.00
25664;BME280;13522;50.018;20.014;2023-09-12T03:22:33;98575.66;;;17.50;100.00
25664;BME280;13522;50.018;20.014;2023-09-12T03:25:46;98572.02;;;17.43;100.00
25664;BME280;13522;50.018;20.014;2023-09-12T03:28:58;98571.26;;;17.28;100.00
25664;BME280;13522;50.018;20.014;2023-09-12T03:32:10;98569.61;;;17.27;100.00
25664;BME280;13522;50.018;20.014;2023-09-12T03:35:23;98573.70;;;17.23;100.00
25664;BME280;13522;50.018;20.014;2023-09-12T03:38:35;98568.58;;;17.28;100.00
25664;BME280;13522;50.018;20.014;2023-09-12T03:41:48;98575.98;;;17.26;100.00
25664;BME280;13522;50.018;20.014;2023-09-12T03:45:01;98576.63;;;17.28;100.00
25664;BME280;13522;50.018;20.014;2023-09-12T03:48:14;98583.84;;;17.27;100.00
25664;BME280;13522;50.018;20.014;2023-09-12T03:51:28;98582.95;;;17.20;100.00
25664;BME280;13522;50.018;20.014;2023-09-12T03:54:41;98571.90;;;17.30;100.00
25664;BME280;13522;50.018;20.014;2023-09-12T03:57:53;98578.55;;;17.34;100.00
25664;BME280;13522;50.018;20.014;2023-09-12T04:01:05;98585.20;;;17.38;100.00
25664;BME280;13522;50.018;20.014;2023-09-12T04:04:18;98582.13;;;17.41;100.00
25664;BME280;13522;50.018;20.014;2023-09-12T04:07:30;98584.80;;;17.41;100.00
25664;BME280;13522;50.018;20.014;2023-09-12T04:10:43;98580.88;;;17.37;100.00
25664;BME280;13522;50.018;20.014;2023-09-12T04:13:55;98588.65;;;17.32;100.00
25664;BME280;13522;50.018;20.014;2023-09-12T04:17:07;98584.03;;;17.26;100.00
25664;BME280;13522;50.018;20.014;2023-09-12T04:20:20;98587.89;;;17.38;100.00
25664;BME280;13522;50.018;20.014;2023-09-12T04:23:32;98583.16;;;17.40;100.00
25664;BME280;13522;50.018;20.014;2023-09-12T04:26:44;98587.89;;;17.38;100.00
25664;BME280;13522;50.018;20.014;2023-09-12T04:29:57;98586.85;;;17.39;100.00
25664;BME280;13522;50.018;20.014;2023-09-12T04:33:10;98588.73;;;17.39;100.00
25664;BME280;13522;50.018;20.014;2023-09-12T04:36:23;98594.46;;;17.35;100.00
25664;BME280;13522;50.018;20.014;2023-09-12T04:39:35;98600.75;;;17.43;100.00
25664;BME280;13522;50.018;20.014;2023-09-12T04:42:48;98597.98;;;17.36;100.00
25664;BME280;13522;50.018;20.014;2023-09-12T04:46:01;98597.91;;;17.29;100.00
25664;BME280;13522;50.018;20.014;2023-09-12T04:49:13;98591.00;;;17.20;100.00
25664;BME280;13522;50.018;20.014;2023-09-12T04:52:25;98589.29;;;17.34;100.00
25664;BME280;13522;50.018;20.014;2023-09-12T04:55:39;98598.43;;;17.40;100.00
25664;BME280;13522;50.018;20.014;2023-09-12T04:58:52;98589.28;;;17.49;100.00
25664;BME280;13522;50.018;20.014;2023-09-12T05:02:04;98593.41;;;17.51;100.00
25664;BME280;13522;50.018;20.014;2023-09-12T05:05:17;98591.44;;;17.60;100.00
25664;BME280;13522;50.018;20.014;2023-09-12T05:08:29;98597.25;;;17.63;100.00
25664;BME280;13522;50.018;20.014;2023-09-12T05:11:42;98595.08;;;17.73;100.00
25664;BME280;13522;50.018;20.014;2023-09-12T05:14:54;98599.75;;;17.86;100.00
25664;BME280;13522;50.018;20.014;2023-09-12T05:18:07;98597.06;;;17.86;100.00
25664;BME280;13522;50.018;20.014;2023-09-12T05:21:20;98600.32;;;17.81;100.00
25664;BME280;13522;50.018;20.014;2023-09-12T05:24:32;98591.45;;;18.08;100.00
25664;BME280;13522;50.018;20.014;2023-09-12T05:27:45;98593.61;;;18.19;100.00
25664;BME280;13522;50.018;20.014;2023-09-12T05:30:57;98597.17;;;18.27;100.00
25664;BME280;13522;50.018;20.014;2023-09-12T05:34:10;98601.27;;;18.44;100.00
25664;BME280;13522;50.018;20.014;2023-09-12T05:37:23;98607.94;;;18.54;100.00
25664;BME280;13522;50.018;20.014;2023-09-12T05:40:35;98600.39;;;18.71;100.00
25664;BME280;13522;50.018;20.014;2023-09-12T05:43:47;98605.27;;;18.95;100.00
25664;BME280;13522;50.018;20.014;2023-09-12T05:47:00;98601.23;;;19.19;100.00
25664;BME280;13522;50.018;20.014;2023-09-12T05:50:13;98595.50;;;19.41;100.00
25664;BME280;13522;50.018;20.014;2023-09-12T05:53:25;98605.52;;;19.73;100.00
25664;BME280;13522;50.018;20.014;2023-09-12T05:56:38;98600.79;;;19.88;100.00
25664;BME280;13522;50.018;20.014;2023-09-12T05:59:50;98602.03;;;20.06;100.00
25664;BME280;13522;50.018;20.014;2023-09-12T06:03:03;98607.44;;;20.25;100.00
25664;BME280;13522;50.018;20.014;2023-09-12T06:06:16;98600.13;;;20.58;100.00
25664;BME280;13522;50.018;20.014;2023-09-12T06:09:30;98606.66;;;21.02;100.00
25664;BME280;13522;50.018;20.014;2023-09-12T06:12:42;98599.79;;;21.50;100.00
25664;BME280;13522;50.018;20.014;2023-09-12T06:15:56;98596.54;;;22.04;100.00
25664;BME280;13522;50.018;20.014;2023-09-12T06:19:08;98597.39;;;22.47;100.00
25664;BME280;13522;50.018;20.014;2023-09-12T06:22:20;98602.14;;;22.52;100.00
25664;BME280;13522;50.018;20.014;2023-09-12T06:25:35;98606.99;;;22.86;100.00
25664;BME280;13522;50.018;20.014;2023-09-12T06:28:47;98612.87;;;23.19;100.00
25664;BME280;13522;50.018;20.014;2023-09-12T06:31:59;98612.45;;;23.52;100.00
25664;BME280;13522;50.018;20.014;2023-09-12T06:35:13;98608.46;;;23.95;99.55
25664;BME280;13522;50.018;20.014;2023-09-12T06:38:25;98608.80;;;24.52;94.02
25664;BME280;13522;50.018;20.014;2023-09-12T06:41:37;98611.63;;;24.80;89.95
25664;BME280;13522;50.018;20.014;2023-09-12T06:44:50;98613.86;;;24.94;87.86
25664;BME280;13522;50.018;20.014;2023-09-12T06:48:02;98621.19;;;24.71;89.50
25664;BME280;13522;50.018;20.014;2023-09-12T06:51:16;98620.25;;;24.88;89.26
25664;BME280;13522;50.018;20.014;2023-09-12T06:54:29;98617.09;;;25.43;85.16
25664;BME280;13522;50.018;20.014;2023-09-12T06:57:42;98620.28;;;25.68;84.30
25664;BME280;13522;50.018;20.014;2023-09-12T07:00:55;98610.89;;;25.75;83.47
25664;BME280;13522;50.018;20.014;2023-09-12T07:04:09;98613.73;;;25.97;84.14
25664;BME280;13522;50.018;20.014;2023-09-12T07:07:25;98618.77;;;26.05;85.46
25664;BME280;13522;50.018;20.014;2023-09-12T07:10:38;98616.91;;;26.39;82.28
25664;BME280;13522;50.018;20.014;2023-09-12T07:13:56;98614.52;;;26.76;80.75
25664;BME280;13522;50.018;20.014;2023-09-12T07:17:10;98619.48;;;27.00;78.86
25664;BME280;13522;50.018;20.014;2023-09-12T07:20:23;98615.52;;;27.29;77.86
25664;BME280;13522;50.018;20.014;2023-09-12T07:23:36;98617.82;;;26.78;81.55
25664;BME280;13522;50.018;20.014;2023-09-12T07:26:49;98614.81;;;26.96;82.75
25664;BME280;13522;50.018;20.014;2023-09-12T07:30:02;98607.88;;;27.10;80.86
25664;BME280;13522;50.018;20.014;2023-09-12T07:33:16;98608.81;;;27.37;76.63
25664;BME280;13522;50.018;20.014;2023-09-12T07:36:29;98611.58;;;27.42;78.43
25664;BME280;13522;50.018;20.014;2023-09-12T07:39:43;98616.55;;;27.72;77.84
25664;BME280;13522;50.018;20.014;2023-09-12T07:42:57;98614.52;;;28.10;77.13
25664;BME280;13522;50.018;20.014;2023-09-12T07:46:10;98600.68;;;28.22;74.78
25664;BME280;13522;50.018;20.014;2023-09-12T07:49:22;98604.84;;;28.66;72.48
25664;BME280;13522;50.018;20.014;2023-09-12T07:52:36;98599.84;;;29.00;70.93
25664;BME280;13522;50.018;20.014;2023-09-12T07:55:49;98606.82;;;29.23;68.06
25664;BME280;13522;50.018;20.014;2023-09-12T07:59:02;98612.71;;;28.99;69.19
25664;BME280;13522;50.018;20.014;2023-09-12T08:02:16;98613.17;;;29.33;68.68
25664;BME280;13522;50.018;20.014;2023-09-12T08:05:29;98611.25;;;28.82;69.66
25664;BME280;13522;50.018;20.014;2023-09-12T08:08:42;98611.09;;;29.08;69.38
25664;BME280;13522;50.018;20.014;2023-09-12T08:11:56;98612.30;;;29.23;70.92
25664;BME280;13522;50.018;20.014;2023-09-12T08:15:10;98601.22;;;29.59;66.31
25664;BME280;13522;50.018;20.014;2023-09-12T08:18:28;98605.16;;;30.09;66.44
25664;BME280;13522;50.018;20.014;2023-09-12T08:21:42;98610.06;;;30.02;65.69
25664;BME280;13522;50.018;20.014;2023-09-12T08:24:55;98610.50;;;29.58;68.74
25664;BME280;13522;50.018;20.014;2023-09-12T08:28:08;98612.58;;;29.26;69.87
25664;BME280;13522;50.018;20.014;2023-09-12T08:31:21;98608.43;;;30.01;65.75
25664;BME280;13522;50.018;20.014;2023-09-12T08:34:34;98613.80;;;29.60;67.25
25664;BME280;13522;50.018;20.014;2023-09-12T08:37:48;98607.30;;;29.91;67.53
25664;BME280;13522;50.018;20.014;2023-09-12T08:41:01;98608.42;;;30.06;66.40
25664;BME280;13522;50.018;20.014;2023-09-12T08:44:15;98612.27;;;29.94;68.12
25664;BME280;13522;50.018;20.014;2023-09-12T08:47:28;98604.61;;;30.47;68.00
25664;BME280;13522;50.018;20.014;2023-09-12T08:50:42;98604.03;;;30.85;64.47
25664;BME280;13522;50.018;20.014;2023-09-12T08:53:57;98602.18;;;31.44;61.45
25664;BME280;13522;50.018;20.014;2023-09-12T08:57:12;98599.20;;;31.85;61.17
25664;BME280;13522;50.018;20.014;2023-09-12T09:00:26;98586.23;;;32.29;59.65
25664;BME280;13522;50.018;20.014;2023-09-12T09:03:41;98585.14;;;32.87;57.57
25664;BME280;13522;50.018;20.014;2023-09-12T09:06:55;98587.27;;;32.38;59.63
25664;BME280;13522;50.018;20.014;2023-09-12T09:10:13;98590.50;;;32.11;56.30
25664;BME280;13522;50.018;20.014;2023-09-12T09:13:29;98576.80;;;32.69;51.77
25664;BME280;13522;50.018;20.014;2023-09-12T09:16:43;98573.05;;;33.12;50.84
25664;BME280;13522;50.018;20.014;2023-09-12T09:19:56;98581.96;;;33.04;55.52
25664;BME280;13522;50.018;20.014;2023-09-12T09:23:10;98572.61;;;32.76;52.71
25664;BME280;13522;50.018;20.014;2023-09-12T09:26:23;98573.59;;;33.33;51.14
25664;BME280;13522;50.018;20.014;2023-09-12T09:29:47;98573.79;;;33.60;49.68
25664;BME280;13522;50.018;20.014;2023-09-12T09:33:04;98574.45;;;33.52;50.78
25664;BME280;13522;50.018;20.014;2023-09-12T09:36:18;98575.00;;;33.30;52.27
25664;BME280;13522;50.018;20.014;2023-09-12T09:39:31;98564.94;;;34.00;50.80
25664;BME280;13522;50.018;20.014;2023-09-12T09:42:44;98556.58;;;34.37;47.90
25664;BME280;13522;50.018;20.014;2023-09-12T09:45:57;98563.74;;;34.06;50.11
25664;BME280;13522;50.018;20.014;2023-09-12T09:49:15;98561.22;;;33.72;49.59
25664;BME280;13522;50.018;20.014;2023-09-12T09:52:30;98559.16;;;33.41;51.50
25664;BME280;13522;50.018;20.014;2023-09-12T09:55:43;98557.08;;;33.33;51.05
25664;BME280;13522;50.018;20.014;2023-09-12T09:58:56;98547.06;;;33.60;49.77
25664;BME280;13522;50.018;20.014;2023-09-12T10:02:13;98544.98;;;33.71;48.64
25664;BME280;13522;50.018;20.014;2023-09-12T10:05:30;98536.21;;;34.20;46.72
25664;BME280;13522;50.018;20.014;2023-09-12T10:08:45;98535.90;;;34.53;47.22
25664;BME280;13522;50.018;20.014;2023-09-12T10:11:58;98537.63;;;34.49;47.55
25664;BME280;13522;50.018;20.014;2023-09-12T10:15:13;98536.94;;;34.25;45.30
25664;BME280;13522;50.018;20.014;2023-09-12T10:18:31;98533.94;;;34.08;45.61
25664;BME280;13522;50.018;20.014;2023-09-12T10:21:50;98521.01;;;34.22;45.91
25664;BME280;13522;50.018;20.014;2023-09-12T10:25:07;98517.16;;;34.37;46.41
25664;BME280;13522;50.018;20.014;2023-09-12T10:28:21;98520.84;;;34.46;46.34
25664;BME280;13522;50.018;20.014;2023-09-12T10:31:34;98521.67;;;34.46;45.25
25664;BME280;13522;50.018;20.014;2023-09-12T10:34:49;98525.70;;;34.22;44.72
25664;BME280;13522;50.018;20.014;2023-09-12T10:38:02;98518.99;;;34.41;45.70
25664;BME280;13522;50.018;20.014;2023-09-12T10:41:16;98522.38;;;34.38;48.92
25664;BME280;13522;50.018;20.014;2023-09-12T10:44:30;98518.27;;;34.36;45.91
25664;BME280;13522;50.018;20.014;2023-09-12T10:47:44;98518.25;;;34.22;45.15
25664;BME280;13522;50.018;20.014;2023-09-12T10:50:59;98523.14;;;33.93;46.05
25664;BME280;13522;50.018;20.014;2023-09-12T10:54:16;98509.43;;;33.88;44.95
25664;BME280;13522;50.018;20.014;2023-09-12T10:57:36;98518.00;;;33.86;45.76
25664;BME280;13522;50.018;20.014;2023-09-12T11:01:24;98514.56;;;33.94;46.13
25664;BME280;13522;50.018;20.014;2023-09-12T11:04:37;98518.15;;;33.95;46.29
25664;BME280;13522;50.018;20.014;2023-09-12T11:07:50;98518.99;;;33.77;46.03
25664;BME280;13522;50.018;20.014;2023-09-12T11:11:21;98523.92;;;33.61;47.22
25664;BME280;13522;50.018;20.014;2023-09-12T11:14:33;98513.33;;;33.50;45.15
25664;BME280;13522;50.018;20.014;2023-09-12T11:17:47;98515.14;;;33.59;47.01
25664;BME280;13522;50.018;20.014;2023-09-12T11:21:02;98511.06;;;33.14;44.16
25664;BME280;13522;50.018;20.014;2023-09-12T11:24:16;98520.36;;;33.18;44.71
25664;BME280;13522;50.018;20.014;2023-09-12T11:27:44;98515.19;;;33.36;46.13
25664;BME280;13522;50.018;20.014;2023-09-12T11:30:59;98510.80;;;33.72;44.77
25664;BME280;13522;50.018;20.014;2023-09-12T11:34:13;98509.59;;;33.78;47.01
25664;BME280;13522;50.018;20.014;2023-09-12T11:37:28;98510.73;;;33.58;45.85
25664;BME280;13522;50.018;20.014;2023-09-12T11:40:46;98507.91;;;33.02;46.21
25664;BME280;13522;50.018;20.014;2023-09-12T11:43:57;98503.19;;;33.26;46.63
25664;BME280;13522;50.018;20.014;2023-09-12T11:47:10;98507.45;;;33.38;47.53
25664;BME280;13522;50.018;20.014;2023-09-12T11:50:31;98505.48;;;33.38;44.62
25664;BME280;13522;50.018;20.014;2023-09-12T11:53:49;98504.17;;;33.36;43.67
25664;BME280;13522;50.018;20.014;2023-09-12T11:57:03;98505.33;;;33.11;44.40
25664;BME280;13522;50.018;20.014;2023-09-12T12:00:17;98499.73;;;32.97;44.11
25664;BME280;13522;50.018;20.014;2023-09-12T12:03:32;98507.91;;;33.02;44.58
25664;BME280;13522;50.018;20.014;2023-09-12T12:06:45;98498.66;;;32.93;44.07
25664;BME280;13522;50.018;20.014;2023-09-12T12:09:58;98506.16;;;33.11;44.88
25664;BME280;13522;50.018;20.014;2023-09-12T12:13:17;98498.28;;;33.23;46.82
25664;BME280;13522;50.018;20.014;2023-09-12T12:16:31;98495.20;;;32.07;47.70
25664;BME280;13522;50.018;20.014;2023-09-12T12:19:46;98493.63;;;32.53;46.87
25664;BME280;13522;50.018;20.014;2023-09-12T12:22:59;98467.12;;;32.10;46.04
25664;BME280;13522;50.018;20.014;2023-09-12T12:26:12;98499.80;;;31.78;48.48
25664;BME280;13522;50.018;20.014;2023-09-12T12:29:25;98495.55;;;31.95;49.69
25664;BME280;13522;50.018;20.014;2023-09-12T12:32:41;98493.91;;;32.23;48.87
25664;BME280;13522;50.018;20.014;2023-09-12T12:36:02;98484.09;;;32.69;47.09
25664;BME280;13522;50.018;20.014;2023-09-12T12:39:15;98476.16;;;32.86;45.00
25664;BME280;13522;50.018;20.014;2023-09-12T12:42:34;98475.28;;;32.91;44.83
25664;BME280;13522;50.018;20.014;2023-09-12T12:45:57;98474.74;;;32.70;45.36
25664;BME280;13522;50.018;20.014;2023-09-12T12:49:16;98488.13;;;32.77;46.82
25664;BME280;13522;50.018;20.014;2023-09-12T12:52:29;98476.89;;;32.73;45.94
25664;BME280;13522;50.018;20.014;2023-09-12T12:55:43;98469.24;;;32.70;45.11
25664;BME280;13522;50.018;20.014;2023-09-12T12:58:57;98465.14;;;32.68;45.82
25664;BME280;13522;50.018;20.014;2023-09-12T13:02:11;98453.27;;;32.72;46.56
25664;BME280;13522;50.018;20.014;2023-09-12T13:05:26;98471.48;;;32.87;46.88
25664;BME280;13522;50.018;20.014;2023-09-12T13:08:39;98468.52;;;32.83;46.73
25664;BME280;13522;50.018;20.014;2023-09-12T13:11:52;98463.38;;;33.19;47.45
25664;BME280;13522;50.018;20.014;2023-09-12T13:15:06;98469.98;;;32.99;46.44
25664;BME280;13522;50.018;20.014;2023-09-12T13:18:19;98470.66;;;32.39;45.69
25664;BME280;13522;50.018;20.014;2023-09-12T13:21:31;98475.07;;;32.11;46.49
25664;BME280;13522;50.018;20.014;2023-09-12T13:24:44;98461.63;;;32.10;46.15
25664;BME280;13522;50.018;20.014;2023-09-12T13:27:57;98470.06;;;32.18;47.74
25664;BME280;13522;50.018;20.014;2023-09-12T13:31:09;98467.48;;;32.27;46.01
25664;BME280;13522;50.018;20.014;2023-09-12T13:34:22;98463.41;;;32.24;45.35
25664;BME280;13522;50.018;20.014;2023-09-12T13:37:34;98455.42;;;32.23;45.44
25664;BME280;13522;50.018;20.014;2023-09-12T13:40:46;98465.00;;;32.02;48.61
25664;BME280;13522;50.018;20.014;2023-09-12T13:43:59;98473.02;;;31.59;49.98
25664;BME280;13522;50.018;20.014;2023-09-12T13:47:11;98481.89;;;31.51;50.53
25664;BME280;13522;50.018;20.014;2023-09-12T13:50:25;98475.89;;;31.44;51.11
25664;BME280;13522;50.018;20.014;2023-09-12T13:53:38;98475.97;;;31.29;50.01
25664;BME280;13522;50.018;20.014;2023-09-12T13:56:51;98472.70;;;31.22;49.35
25664;BME280;13522;50.018;20.014;2023-09-12T14:00:05;98468.77;;;31.43;47.55
25664;BME280;13522;50.018;20.014;2023-09-12T14:03:22;98468.41;;;31.55;49.35
25664;BME280;13522;50.018;20.014;2023-09-12T14:06:36;98470.91;;;31.51;50.36
25664;BME280;13522;50.018;20.014;2023-09-12T14:09:49;98473.53;;;31.23;51.13
25664;BME280;13522;50.018;20.014;2023-09-12T14:13:04;98476.92;;;31.05;51.45
25664;BME280;13522;50.018;20.014;2023-09-12T14:16:18;98468.99;;;30.98;51.22
25664;BME280;13522;50.018;20.014;2023-09-12T14:19:31;98472.91;;;30.82;53.37
25664;BME280;13522;50.018;20.014;2023-09-12T14:22:45;98473.53;;;30.64;53.44
25664;BME280;13522;50.018;20.014;2023-09-12T14:25:58;98478.50;;;30.52;53.51
25664;BME280;13522;50.018;20.014;2023-09-12T14:29:11;98480.75;;;30.10;51.58
25664;BME280;13522;50.018;20.014;2023-09-12T14:32:23;98479.66;;;30.06;54.45
25664;BME280;13522;50.018;20.014;2023-09-12T14:35:35;98478.56;;;30.12;49.94
25664;BME280;13522;50.018;20.014;2023-09-12T14:38:48;98467.88;;;30.10;53.66
25664;BME280;13522;50.018;20.014;2023-09-12T14:42:00;98470.89;;;30.04;52.82
25664;BME280;13522;50.018;20.014;2023-09-12T14:45:15;98466.53;;;30.03;49.27
25664;BME280;13522;50.018;20.014;2023-09-12T14:48:28;98473.66;;;29.99;52.02
25664;BME280;13522;50.018;20.014;2023-09-12T14:51:44;98468.19;;;29.88;51.43
25664;BME280;13522;50.018;20.014;2023-09-12T14:54:57;98477.22;;;29.94;52.11
25664;BME280;13522;50.018;20.014;2023-09-12T14:58:09;98485.16;;;29.75;54.29
25664;BME280;13522;50.018;20.014;2023-09-12T15:01:21;98484.89;;;29.72;52.93
25664;BME280;13522;50.018;20.014;2023-09-12T15:04:34;98480.50;;;29.86;51.61
25664;BME280;13522;50.018;20.014;2023-09-12T15:07:46;98481.87;;;29.83;53.65
25664;BME280;13522;50.018;20.014;2023-09-12T15:10:58;98485.45;;;29.79;55.44
25664;BME280;13522;50.018;20.014;2023-09-12T15:14:11;98487.60;;;29.67;54.50
25664;BME280;13522;50.018;20.014;2023-09-12T15:17:24;98485.13;;;29.60;55.90
25664;BME280;13522;50.018;20.014;2023-09-12T15:20:36;98488.14;;;29.59;53.51
25664;BME280;13522;50.018;20.014;2023-09-12T15:23:49;98484.59;;;29.53;55.82
25664;BME280;13522;50.018;20.014;2023-09-12T15:27:03;98473.09;;;29.51;55.79
25664;BME280;13522;50.018;20.014;2023-09-12T15:30:16;98474.16;;;29.50;56.42
25664;BME280;13522;50.018;20.014;2023-09-12T15:33:28;98485.09;;;29.40;58.24
25664;BME280;13522;50.018;20.014;2023-09-12T15:36:44;98490.02;;;29.38;57.56
25664;BME280;13522;50.018;20.014;2023-09-12T15:39:57;98485.61;;;29.22;59.63
25664;BME280;13522;50.018;20.014;2023-09-12T15:43:10;98486.63;;;29.06;59.74
25664;BME280;13522;50.018;20.014;2023-09-12T15:46:24;98490.44;;;29.00;60.94
25664;BME280;13522;50.018;20.014;2023-09-12T15:49:38;98488.22;;;28.87;63.12
25664;BME280;13522;50.018;20.014;2023-09-12T15:52:51;98477.78;;;28.74;63.08
25664;BME280;13522;50.018;20.014;2023-09-12T15:56:03;98481.31;;;28.69;63.03
25664;BME280;13522;50.018;20.014;2023-09-12T15:59:15;98480.44;;;28.59;63.85
25664;BME280;13522;50.018;20.014;2023-09-12T16:02:27;98483.95;;;28.54;64.74
25664;BME280;13522;50.018;20.014;2023-09-12T16:05:40;98484.95;;;28.38;65.41
25664;BME280;13522;50.018;20.014;2023-09-12T16:08:53;98483.51;;;28.25;65.38
25664;BME280;13522;50.018;20.014;2023-09-12T16:12:07;98478.76;;;28.11;65.03
25664;BME280;13522;50.018;20.014;2023-09-12T16:15:20;98483.06;;;27.97;66.79
25664;BME280;13522;50.018;20.014;2023-09-12T16:18:32;98484.79;;;27.81;67.34
25664;BME280;13522;50.018;20.014;2023-09-12T16:21:44;98475.95;;;27.69;66.99
25664;BME280;13522;50.018;20.014;2023-09-12T16:24:57;98480.23;;;27.55;68.98
25664;BME280;13522;50.018;20.014;2023-09-12T16:28:09;98477.34;;;27.40;68.72
25664;BME280;13522;50.018;20.014;2023-09-12T16:31:22;98487.55;;;27.28;71.11
25664;BME280;13522;50.018;20.014;2023-09-12T16:34:34;98482.45;;;27.10;74.63
25664;BME280;13522;50.018;20.014;2023-09-12T16:37:47;98487.17;;;26.93;77.36
25664;BME280;13522;50.018;20.014;2023-09-12T16:41:00;98484.06;;;26.84;76.80
25664;BME280;13522;50.018;20.014;2023-09-12T16:44:13;98483.76;;;26.81;76.19
25664;BME280;13522;50.018;20.014;2023-09-12T16:47:27;98482.30;;;26.73;76.65
25664;BME280;13522;50.018;20.014;2023-09-12T16:50:39;98484.13;;;26.68;76.00